Time;durP1;ratioP1;P1;durP2;ratioP2;P2;SDS_P1;SDS_P2;PMS_P1;PMS_P2;Temp;Humidity;BMP_temperature;BMP_pressure;BME280_temperature;BME280_humidity;BME280_pressure;Samples;Min_cycle;Max_cycle;Signal;HPM_P1;HPM_P2
2023/07/07 00:02:23;;;;;;;5.38;4.97;;;;;;;12.67;100.00;101221.50;6116199;23;20506;-74
2023/07/07 00:04:50;;;;;;;5.45;4.78;;;;;;;12.34;100.00;101183.72;6088973;23;20100;-72
2023/07/07 00:07:17;;;;;;;5.38;5.07;;;;;;;12.90;100.00;101278.25;6115681;23;20485;-73
2023/07/07 00:09:44;;;;;;;5.90;5.40;;;;;;;13.05;100.00;101311.72;6113863;23;20025;-75
2023/07/07 00:12:10;;;;;;;5.38;4.90;;;;;;;13.24;100.00;101350.28;6120179;23;20341;-73
2023/07/07 00:14:37;;;;;;;5.43;5.00;;;;;;;13.06;100.00;101328.38;6088228;23;20032;-73
2023/07/07 00:17:04;;;;;;;5.80;5.32;;;;;;;13.20;100.00;101356.63;6115486;23;20025;-73
2023/07/07 00:19:32;;;;;;;5.53;5.22;;;;;;;13.18;100.00;101372.53;6111261;23;20017;-73
2023/07/07 00:22:01;;;;;;;6.07;5.68;;;;;;;13.09;100.00;101354.53;6112681;23;20088;-75
2023/07/07 00:24:29;;;;;;;5.25;4.95;;;;;;;12.68;100.00;101304.88;6115396;23;20029;-73
2023/07/07 00:26:56;;;;;;;5.65;5.20;;;;;;;13.09;100.00;101375.63;6113666;23;20104;-73
2023/07/07 00:29:22;;;;;;;5.38;5.07;;;;;;;10.18;100.00;100898.31;6113235;23;20091;-73
2023/07/07 00:31:52;;;;;;;4.97;4.78;;;;;;;12.86;100.00;101347.84;6110690;23;20063;-72
2023/07/07 00:34:18;;;;;;;5.32;5.03;;;;;;;12.79;100.00;101365.75;6115273;23;20017;-73
2023/07/07 00:36:45;;;;;;;5.30;5.00;;;;;;;12.96;100.00;101396.50;6115618;23;20044;-73
2023/07/07 00:39:11;;;;;;;5.65;5.22;;;;;;;12.86;100.00;101392.63;6113062;23;20025;-73
2023/07/07 00:41:39;;;;;;;5.28;4.97;;;;;;;12.75;100.00;101393.19;6089008;23;20037;-73
2023/07/07 00:44:10;;;;;;;5.15;4.85;;;;;;;12.55;100.00;101386.28;6084081;23;20018;-73
2023/07/07 00:46:38;;;;;;;5.43;5.13;;;;;;;12.67;100.00;101408.50;6111160;23;20097;-73
2023/07/07 00:49:14;;;;;;;5.85;5.45;;;;;;;12.65;100.00;101405.94;6116398;23;20606;-73
2023/07/07 00:51:50;;;;;;;5.25;4.95;;;;;;;12.06;100.00;101307.06;6081857;23;20634;-73
2023/07/07 00:54:23;;;;;;;5.25;4.85;;;;;;;12.61;100.00;101414.94;6109098;23;20021;-73
2023/07/07 00:56:53;;;;;;;5.40;5.10;;;;;;;12.42;100.00;101388.63;6111712;23;20548;-73
2023/07/07 00:59:28;;;;;;;5.53;5.20;;;;;;;12.27;100.00;101361.28;6113004;23;20029;-72
2023/07/07 01:01:58;;;;;;;5.70;5.20;;;;;;;12.20;100.00;101349.34;6116718;23;20053;-72
2023/07/07 01:04:27;;;;;;;5.40;5.10;;;;;;;12.48;100.00;101408.56;6089556;23;20056;-74
2023/07/07 01:07:01;;;;;;;5.30;5.00;;;;;;;12.23;100.00;101375.53;6092753;23;20016;-71
2023/07/07 01:09:28;;;;;;;5.38;4.97;;;;;;;12.20;100.00;101377.44;6106698;23;20132;-73
2023/07/07 01:11:55;;;;;;;5.55;5.25;;;;;;;12.38;100.00;101401.09;6112996;23;20446;-74
2023/07/07 01:14:25;;;;;;;5.43;5.13;;;;;;;12.03;100.00;101350.19;6115529;23;20014;-73
2023/07/07 01:16:55;;;;;;;5.22;4.93;;;;;;;12.12;100.00;101377.81;6087442;23;20062;-73
2023/07/07 01:19:52;;;;;;;5.28;4.97;;;;;;;12.29;100.00;101414.72;6111528;23;20534;-73
2023/07/07 01:22:53;;;;;;;5.50;5.00;;;;;;;12.29;100.00;101427.03;6112208;23;20092;-73
2023/07/07 01:25:31;;;;;;;5.28;4.88;;;;;;;12.24;100.00;101421.13;6112083;23;20041;-74
2023/07/07 01:28:23;;;;;;;4.75;4.45;;;;;;;12.21;100.00;101421.25;6078692;23;20028;-73
2023/07/07 01:31:07;;;;;;;;;;;;;;;12.18;100.00;101411.72;6111279;23;20105;-72
2023/07/07 01:33:34;;;;;;;5.13;4.80;;;;;;;12.20;100.00;101430.09;6113342;23;19913;-73
2023/07/07 01:36:00;;;;;;;5.47;5.05;;;;;;;12.13;100.00;101426.91;6115394;23;20357;-72
2023/07/07 01:38:39;;;;;;;5.57;5.28;;;;;;;12.08;100.00;101411.31;6067017;23;20096;-74
2023/07/07 01:41:35;;;;;;;5.07;4.85;;;;;;;12.06;100.00;101423.69;6113985;23;20038;-73
2023/07/07 01:44:07;;;;;;;5.10;4.80;;;;;;;12.03;100.00;101413.31;6082448;23;20030;-73
2023/07/07 01:47:04;;;;;;;5.00;4.80;;;;;;;12.00;100.00;101415.22;6109108;23;20091;-72
2023/07/07 01:50:17;;;;;;;5.95;4.70;;;;;;;11.60;100.00;101360.03;6094644;23;20041;-72
2023/07/07 01:53:13;;;;;;;5.55;5.25;;;;;;;11.83;100.00;101410.72;6085504;23;20035;-71
2023/07/07 01:55:47;;;;;;;5.50;5.05;;;;;;;11.82;100.00;101416.91;6109008;23;20025;-72
2023/07/07 01:58:17;;;;;;;5.38;5.07;;;;;;;11.71;100.00;101399.84;6108491;23;20023;-73
2023/07/07 02:00:45;;;;;;;5.15;4.85;;;;;;;11.76;100.00;101420.66;6083812;23;20074;-73
2023/07/07 02:03:15;;;;;;;4.95;4.50;;;;;;;11.72;100.00;101430.44;6112772;23;20041;-74
2023/07/07 02:05:42;;;;;;;4.82;4.60;;;;;;;11.62;100.00;101415.19;6111137;23;20104;-73
2023/07/07 02:08:09;;;;;;;4.75;4.50;;;;;;;11.52;100.00;101428.72;6107123;23;20048;-73
2023/07/07 02:10:35;;;;;;;5.15;4.85;;;;;;;11.29;100.00;101381.59;6115143;23;20946;-73
2023/07/07 02:13:02;;;;;;;5.35;5.05;;;;;;;11.16;100.00;101361.13;6085713;23;20013;-73
2023/07/07 02:15:28;;;;;;;4.90;4.60;;;;;;;11.58;100.00;101432.84;6114553;23;20039;-73
2023/07/07 02:17:56;;;;;;;5.10;4.80;;;;;;;11.44;100.00;101412.44;6112702;23;20025;-73
2023/07/07 02:20:23;;;;;;;5.22;4.85;;;;;;;11.29;100.00;101400.00;6060660;23;20040;-72
2023/07/07 02:22:49;;;;;;;5.40;4.90;;;;;;;11.29;100.00;101400.84;6108683;23;20023;-74
2023/07/07 02:25:16;;;;;;;5.70;4.93;;;;;;;11.01;100.00;101380.19;6084774;23;20037;-73
2023/07/07 02:27:43;;;;;;;5.45;5.05;;;;;;;11.45;100.00;101432.56;6085580;23;20132;-73
2023/07/07 02:30:10;;;;;;;4.90;4.60;;;;;;;11.46;100.00;101438.66;6114565;23;20017;-73
2023/07/07 02:32:36;;;;;;;5.50;5.20;;;;;;;10.95;100.00;101351.56;6087722;23;20010;-73
2023/07/07 02:35:04;;;;;;;5.30;5.00;;;;;;;11.42;100.00;101437.09;6109664;23;20097;-73
2023/07/07 02:37:30;;;;;;;5.25;4.82;;;;;;;11.37;100.00;101429.41;6111100;23;20034;-73
2023/07/07 02:39:57;;;;;;;5.25;4.85;;;;;;;11.36;100.00;101438.22;6122901;23;20036;-72
2023/07/07 02:42:24;;;;;;;5.50;5.00;;;;;;;11.04;100.00;101397.56;6096345;23;20045;-73
2023/07/07 02:44:51;;;;;;;4.93;4.63;;;;;;;10.88;100.00;101379.81;6132382;23;20025;-73
2023/07/07 02:47:17;;;;;;;6.65;6.25;;;;;;;11.29;100.00;101458.66;6083059;23;20025;-73
2023/07/07 02:49:44;;;;;;;5.63;4.95;;;;;;;11.12;100.00;101417.31;6114182;23;20033;-72
2023/07/07 02:52:10;;;;;;;5.28;4.97;;;;;;;11.25;100.00;101443.09;6087932;23;20730;-72
2023/07/07 02:54:37;;;;;;;5.85;5.45;;;;;;;11.17;100.00;101430.28;6110652;23;20036;-73
2023/07/07 02:57:05;;;;;;;5.28;4.97;;;;;;;11.08;100.00;101425.41;6108888;23;20022;-72
2023/07/07 02:59:32;;;;;;;5.10;4.80;;;;;;;11.02;100.00;101410.75;6084504;23;20037;-72
2023/07/07 03:01:58;;;;;;;5.43;5.05;;;;;;;11.01;100.00;101423.97;6114156;23;20017;-73
2023/07/07 03:04:26;;;;;;;5.70;5.20;;;;;;;11.22;100.00;101453.72;6082635;23;20514;-73
2023/07/07 03:06:54;;;;;;;5.15;4.75;;;;;;;11.21;100.00;101462.53;6112977;23;20044;-73
2023/07/07 03:09:23;;;;;;;5.60;5.10;;;;;;;11.20;100.00;101479.19;6111798;23;20029;-73
2023/07/07 03:11:50;;;;;;;4.90;4.60;;;;;;;9.56;100.00;101201.59;6082613;23;20356;-73
2023/07/07 03:14:21;;;;;;;5.40;4.85;;;;;;;11.01;100.00;101450.25;6114267;23;20029;-73
2023/07/07 03:16:51;;;;;;;5.50;5.10;;;;;;;11.15;100.00;101471.53;6087369;23;20041;-72
2023/07/07 03:19:19;;;;;;;5.00;4.70;;;;;;;11.14;100.00;101464.56;6043144;23;20061;-73
2023/07/07 03:21:46;;;;;;;5.10;4.70;;;;;;;10.76;100.00;101406.59;6110239;23;20029;-72
2023/07/07 03:24:17;;;;;;;5.50;5.10;;;;;;;11.11;100.00;101464.69;6111896;23;20030;-72
2023/07/07 03:26:46;;;;;;;5.13;4.82;;;;;;;10.91;100.00;101431.38;6111503;23;20033;-73
2023/07/07 03:29:13;;;;;;;5.00;4.70;;;;;;;10.98;100.00;101449.47;6084126;23;20026;-73
2023/07/07 03:31:39;;;;;;;5.80;5.35;;;;;;;10.96;100.00;101451.28;6110307;23;20040;-72
2023/07/07 03:34:07;;;;;;;5.47;4.97;;;;;;;11.01;100.00;101466.84;6116743;23;20021;-72
2023/07/07 03:36:35;;;;;;;5.97;5.30;;;;;;;11.22;100.00;101478.22;6091251;23;20710;-72
2023/07/07 03:39:02;;;;;;;5.53;5.22;;;;;;;11.27;100.00;101488.56;6111555;23;20017;-73
2023/07/07 03:41:29;;;;;;;5.53;5.22;;;;;;;11.26;100.00;101484.19;6088417;23;20107;-73
2023/07/07 03:43:56;;;;;;;5.35;5.05;;;;;;;10.83;100.00;101394.09;6085518;23;20030;-72
2023/07/07 03:46:25;;;;;;;5.57;5.18;;;;;;;11.03;100.00;101409.84;6116230;23;20028;-72
2023/07/07 03:48:53;;;;;;;5.00;4.65;;;;;;;11.53;100.00;101492.69;6061897;23;20011;-72
2023/07/07 03:51:22;;;;;;;5.07;4.78;;;;;;;11.11;100.00;101433.16;6102644;23;20083;-72
2023/07/07 03:53:51;;;;;;;5.88;5.45;;;;;;;11.55;100.00;101490.84;6113206;23;20045;-73
2023/07/07 03:56:19;;;;;;;5.50;5.10;;;;;;;11.36;100.00;101460.06;6120498;23;20041;-73
2023/07/07 03:58:47;;;;;;;5.75;5.10;;;;;;;11.69;100.00;101485.81;6085829;23;20025;-73
2023/07/07 04:01:14;;;;;;;5.53;5.05;;;;;;;11.51;100.00;101448.06;6118060;23;20573;-75
2023/07/07 04:03:42;;;;;;;6.43;5.40;;;;;;;11.86;100.00;101489.47;6113284;23;20028;-74
2023/07/07 04:06:12;;;;;;;9.85;5.20;;;;;;;11.83;100.00;101469.44;6114813;23;20037;-73
2023/07/07 04:08:38;;;;;;;5.28;4.97;;;;;;;10.80;100.00;101297.91;6110776;23;20483;-73
2023/07/07 04:11:16;;;;;;;6.22;5.30;;;;;;;11.97;100.00;101484.63;6116173;23;20014;-72
2023/07/07 04:13:44;;;;;;;5.30;5.00;;;;;;;12.11;100.00;101476.94;6084009;23;20029;-71
2023/07/07 04:16:18;;;;;;;12.75;5.68;;;;;;;12.46;100.00;101434.09;6115035;23;20041;-73
2023/07/07 04:18:46;;;;;;;5.10;4.90;;;;;;;13.32;100.00;101393.78;6111741;23;20053;-72
2023/07/07 04:21:21;;;;;;;4.80;4.60;;;;;;;14.94;100.00;101469.38;6113778;23;20022;-73
2023/07/07 04:23:51;;;;;;;5.60;5.15;;;;;;;15.75;100.00;101435.44;6112017;23;20028;-72
2023/07/07 04:26:19;;;;;;;7.75;5.35;;;;;;;16.33;100.00;101374.38;6115618;23;20040;-74
2023/07/07 04:28:46;;;;;;;6.25;5.78;;;;;;;16.77;94.45;101324.66;6111918;23;20345;-72
2023/07/07 04:31:15;;;;;;;6.22;5.80;;;;;;;16.86;87.14;101232.13;6113177;23;20018;-74
2023/07/07 04:33:42;;;;;;;6.60;6.05;;;;;;;16.95;81.41;101129.88;6115218;23;20063;-72
2023/07/07 04:36:11;;;;;;;6.35;5.85;;;;;;;17.28;77.13;101184.94;6091567;23;20025;-73
2023/07/07 04:38:37;;;;;;;6.28;5.82;;;;;;;18.00;77.12;101221.28;6087235;23;20525;-73
2023/07/07 04:41:11;;;;;;;6.50;6.00;;;;;;;18.12;73.74;101147.75;6116468;23;20412;-71
2023/07/07 04:43:40;;;;;;;6.65;6.15;;;;;;;18.33;72.36;101137.28;6081793;23;20082;-72
2023/07/07 04:46:09;;;;;;;6.10;5.60;;;;;;;18.47;70.29;101075.91;6118211;23;20048;-73
2023/07/07 04:48:36;;;;;;;7.82;6.70;;;;;;;18.43;69.76;101079.78;6110585;23;20021;-70
2023/07/07 04:51:08;;;;;;;6.63;6.13;;;;;;;19.20;69.06;101113.50;6060391;23;20058;-72
2023/07/07 04:53:37;;;;;;;;;;;;;;;19.50;66.63;101050.72;6112139;23;20025;-72
2023/07/07 04:56:09;;;;;;;6.75;6.25;;;;;;;19.27;64.27;100922.28;6112729;23;20013;-72
2023/07/07 04:58:37;;;;;;;6.38;6.00;;;;;;;19.77;64.48;101006.81;6107106;23;20025;-73
2023/07/07 05:01:05;;;;;;;6.22;5.82;;;;;;;20.13;64.24;101042.72;6093850;23;20042;-71
2023/07/07 05:03:32;;;;;;;6.68;6.18;;;;;;;20.02;62.90;100971.69;6111817;23;20024;-72
2023/07/07 05:05:58;;;;;;;6.68;6.13;;;;;;;19.17;62.50;100838.91;6086347;23;20022;-72
2023/07/07 05:08:25;;;;;;;6.65;6.25;;;;;;;19.25;63.92;100914.44;6080427;23;20021;-72
2023/07/07 05:10:51;;;;;;;6.45;5.93;;;;;;;19.84;63.55;100970.66;6115452;23;20035;-73
2023/07/07 05:13:17;;;;;;;6.80;6.25;;;;;;;20.41;62.21;100984.31;6115359;23;20005;-75
2023/07/07 05:15:44;;;;;;;6.30;5.90;;;;;;;19.88;60.90;100794.44;6112941;23;20136;-73
2023/07/07 05:18:10;;;;;;;6.38;5.88;;;;;;;21.31;57.61;100849.78;6081853;23;20035;-72
2023/07/07 05:20:37;;;;;;;6.30;5.95;;;;;;;21.79;57.21;100893.28;6111493;23;20053;-72
2023/07/07 05:23:03;;;;;;;6.40;6.00;;;;;;;21.96;56.44;100838.22;6110143;23;20010;-72
2023/07/07 05:25:30;;;;;;;6.43;5.93;;;;;;;21.93;55.67;100807.31;6113493;23;20026;-72
2023/07/07 05:27:56;;;;;;;6.60;6.13;;;;;;;22.14;55.44;100809.66;6114598;23;20020;-72
2023/07/07 05:30:23;;;;;;;8.43;6.35;;;;;;;22.49;54.08;100774.06;6091125;23;20024;-73
2023/07/07 05:32:49;;;;;;;6.45;6.00;;;;;;;22.82;53.80;100848.38;6111576;23;20032;-73
2023/07/07 05:35:16;;;;;;;6.68;6.28;;;;;;;22.90;52.30;100711.94;6114000;23;20021;-72
2023/07/07 05:37:42;;;;;;;6.50;6.10;;;;;;;22.94;52.39;100780.22;6111953;23;20344;-72
2023/07/07 05:40:09;;;;;;;6.47;6.07;;;;;;;23.29;51.83;100818.56;6113639;23;20480;-71
2023/07/07 05:42:39;;;;;;;6.65;6.22;;;;;;;23.67;50.22;100769.00;6114336;23;20029;-73
2023/07/07 05:45:06;;;;;;;6.45;5.82;;;;;;;23.22;49.87;100691.69;6111822;23;20022;-72
2023/07/07 05:47:33;;;;;;;6.22;5.78;;;;;;;22.40;51.45;100701.97;6087552;23;20024;-73
2023/07/07 05:49:59;;;;;;;6.45;6.05;;;;;;;22.53;52.23;100779.94;6111950;23;20083;-72
2023/07/07 05:52:26;;;;;;;7.00;6.47;;;;;;;23.06;50.92;100808.41;6076487;23;20013;-72
2023/07/07 05:54:52;;;;;;;5.75;5.45;;;;;;;23.62;49.96;100834.78;6112013;23;20104;-73
2023/07/07 05:57:21;;;;;;;6.47;6.00;;;;;;;23.96;48.93;100821.34;6085068;23;20021;-72
2023/07/07 05:59:47;;;;;;;6.65;6.25;;;;;;;23.20;47.98;100673.09;6108617;23;20021;-72
2023/07/07 06:02:14;;;;;;;6.60;6.20;;;;;;;23.46;48.01;100744.50;6111598;23;20013;-72
2023/07/07 06:04:41;;;;;;;6.38;5.97;;;;;;;23.33;48.28;100733.38;6114816;23;20043;-73
2023/07/07 06:07:07;;;;;;;6.13;5.82;;;;;;;24.18;45.96;100730.53;6108363;23;20116;-72
2023/07/07 06:09:33;;;;;;;8.63;6.05;;;;;;;24.38;45.40;100710.41;6109784;23;20472;-73
2023/07/07 06:12:01;;;;;;;9.52;6.20;;;;;;;23.19;46.53;100628.56;6112499;23;20621;-72
2023/07/07 06:14:28;;;;;;;6.43;6.03;;;;;;;23.83;46.48;100794.16;6108591;23;20814;-73
2023/07/07 06:16:54;;;;;;;6.30;5.90;;;;;;;23.73;46.37;100791.59;6113456;23;20045;-72
2023/07/07 06:19:21;;;;;;;6.00;5.70;;;;;;;23.88;46.68;100845.44;6112724;23;20060;-73
2023/07/07 06:21:47;;;;;;;6.70;6.25;;;;;;;24.33;46.03;100871.00;6107597;23;20096;-71
2023/07/07 06:24:13;;;;;;;5.97;5.68;;;;;;;23.63;46.39;100806.97;6107562;23;20051;-72
2023/07/07 06:26:40;;;;;;;6.47;6.00;;;;;;;23.24;46.39;100800.31;6113570;23;20028;-72
2023/07/07 06:29:06;;;;;;;6.10;5.70;;;;;;;22.97;47.61;100870.88;6110777;23;20035;-72
2023/07/07 06:31:33;;;;;;;6.30;6.00;;;;;;;22.20;48.12;100813.56;6110084;23;21124;-72
2023/07/07 06:33:59;;;;;;;6.15;5.85;;;;;;;22.12;49.90;100921.25;6109016;23;21496;-73
2023/07/07 06:36:26;;;;;;;6.28;5.88;;;;;;;21.23;50.01;100807.78;6115566;23;20558;-73
2023/07/07 06:38:52;;;;;;;6.00;5.70;;;;;;;21.96;50.92;101014.59;6104677;23;20037;-72
2023/07/07 06:41:21;;;;;;;6.35;5.75;;;;;;;21.59;50.66;100948.63;6102710;23;20614;-72
2023/07/07 06:43:47;;;;;;;6.30;5.85;;;;;;;21.70;52.05;101034.78;6108531;23;20032;-71
2023/07/07 06:46:15;;;;;;;5.93;5.63;;;;;;;21.26;52.07;100997.00;6114073;23;20040;-72
2023/07/07 06:48:41;;;;;;;6.82;5.88;;;;;;;21.60;51.93;101033.13;6106994;23;20445;-71
2023/07/07 06:51:08;;;;;;;6.75;6.25;;;;;;;20.55;50.72;100849.75;6107277;23;20032;-72
2023/07/07 06:53:35;;;;;;;6.13;5.63;;;;;;;21.40;52.35;101075.00;6108173;23;20823;-73
2023/07/07 06:56:01;;;;;;;6.30;5.90;;;;;;;21.20;52.85;101028.78;6112795;23;20031;-72
2023/07/07 06:58:28;;;;;;;7.68;7.25;;;;;;;21.59;52.02;101050.13;6097059;23;20029;-74
2023/07/07 07:00:54;;;;;;;6.05;5.65;;;;;;;21.80;51.40;101058.78;6111821;23;20020;-74
2023/07/07 07:03:21;;;;;;;6.18;5.78;;;;;;;22.09;50.24;101036.47;6088857;23;20219;-72
2023/07/07 07:05:47;;;;;;;6.38;6.03;;;;;;;22.10;49.25;100998.06;6103647;23;20033;-73
2023/07/07 07:08:14;;;;;;;6.32;5.82;;;;;;;22.08;50.42;101037.47;6109662;23;20032;-75
2023/07/07 07:10:40;;;;;;;6.10;5.60;;;;;;;21.95;51.31;101080.56;6103183;23;20097;-72
2023/07/07 07:13:08;;;;;;;5.60;5.30;;;;;;;21.68;49.39;100945.09;6115238;23;20021;-71
2023/07/07 07:15:34;;;;;;;6.00;5.70;;;;;;;21.19;50.82;100955.00;6115093;23;20033;-71
2023/07/07 07:18:01;;;;;;;5.57;5.28;;;;;;;21.79;49.32;101011.72;6109131;23;20087;-73
2023/07/07 07:20:27;;;;;;;6.40;6.00;;;;;;;21.73;50.46;101043.47;6116408;23;20029;-71
2023/07/07 07:22:54;;;;;;;5.88;5.57;;;;;;;21.69;51.21;101053.63;6113333;23;20028;-72
2023/07/07 07:25:20;;;;;;;5.78;5.47;;;;;;;22.12;50.73;101070.94;6112140;23;20021;-72
2023/07/07 07:27:46;;;;;;;5.70;5.30;;;;;;;22.30;49.12;101012.22;6113595;23;20664;-72
2023/07/07 07:30:15;;;;;;;13.13;5.68;;;;;;;22.24;48.31;100994.09;6111987;23;20026;-72
2023/07/07 07:32:41;;;;;;;6.10;5.70;;;;;;;22.21;47.22;100949.75;6088186;23;20029;-71
2023/07/07 07:35:10;;;;;;;5.50;5.20;;;;;;;21.99;49.12;100985.75;6115138;23;20034;-72
2023/07/07 07:37:37;;;;;;;6.18;5.78;;;;;;;22.55;48.39;101052.59;6082468;23;20022;-72
2023/07/07 07:40:15;;;;;;;12.05;11.38;;;;;;;22.62;46.98;100979.63;6055127;23;20609;-74
2023/07/07 07:42:50;;;;;;;5.90;5.60;;;;;;;22.51;46.98;100958.44;6066540;23;20162;-72
2023/07/07 07:45:19;;;;;;;6.03;5.60;;;;;;;22.58;48.40;101063.88;6083705;23;20059;-73
2023/07/07 07:47:47;;;;;;;6.15;5.75;;;;;;;22.79;47.23;101017.25;6092649;23;20021;-72
2023/07/07 07:50:15;;;;;;;5.70;5.40;;;;;;;22.42;46.42;100913.91;6081778;23;20469;-72
2023/07/07 07:52:42;;;;;;;5.97;5.68;;;;;;;22.48;46.45;100942.72;6088498;23;20025;-72
2023/07/07 07:55:09;;;;;;;5.65;5.35;;;;;;;22.25;47.00;100921.78;6101948;23;20038;-71
2023/07/07 07:57:37;;;;;;;6.00;5.60;;;;;;;22.97;47.92;101066.28;6087392;23;20021;-72
2023/07/07 08:00:04;;;;;;;6.07;5.68;;;;;;;22.75;47.74;101007.84;6112524;23;20025;-72
2023/07/07 08:02:31;;;;;;;6.20;5.40;;;;;;;23.17;46.06;100991.19;6084687;23;20028;-73
2023/07/07 08:04:57;;;;;;;5.50;5.15;;;;;;;23.07;46.13;100972.53;6085600;23;20053;-71
2023/07/07 08:07:25;;;;;;;5.63;5.32;;;;;;;23.52;45.07;100970.69;6116722;23;20033;-71
2023/07/07 08:09:52;;;;;;;6.00;5.60;;;;;;;23.35;45.46;100989.31;6112202;23;20060;-71
2023/07/07 08:12:18;;;;;;;5.75;5.43;;;;;;;23.67;45.05;101009.28;6115037;23;20022;-72
2023/07/07 08:14:44;;;;;;;5.63;5.30;;;;;;;23.78;43.80;100960.81;6111362;23;20060;-73
2023/07/07 08:17:13;;;;;;;5.90;5.50;;;;;;;23.88;43.38;100963.38;6089755;23;20029;-72
2023/07/07 08:19:41;;;;;;;5.93;5.47;;;;;;;24.09;44.14;100985.28;6085328;23;20017;-71
2023/07/07 08:22:12;;;;;;;5.53;5.22;;;;;;;24.17;42.71;100940.69;6111659;23;20491;-72
2023/07/07 08:24:40;;;;;;;5.78;5.47;;;;;;;23.96;42.78;100930.41;6113418;23;20080;-72
2023/07/07 08:27:08;;;;;;;5.70;5.40;;;;;;;24.14;43.41;100976.72;6086785;23;20030;-72
2023/07/07 08:29:38;;;;;;;6.78;5.60;;;;;;;24.09;41.99;100886.06;6089246;23;20051;-72
2023/07/07 08:32:05;;;;;;;5.68;5.38;;;;;;;23.78;42.58;100872.38;6112032;23;20122;-72
2023/07/07 08:34:32;;;;;;;5.63;5.32;;;;;;;24.03;41.59;100877.81;6111823;23;20413;-73
2023/07/07 08:37:13;;;;;;;5.70;5.40;;;;;;;23.93;42.43;100938.78;6090069;23;20093;-72
2023/07/07 08:39:39;;;;;;;6.10;5.65;;;;;;;24.27;42.04;100955.63;6107563;23;20017;-71
2023/07/07 08:42:28;;;;;;;6.10;5.57;;;;;;;24.04;41.13;100866.94;6082417;23;20074;-72
2023/07/07 08:44:56;;;;;;;5.60;5.30;;;;;;;24.29;40.19;100848.19;6110583;23;20026;-72
2023/07/07 08:47:59;;;;;;;5.70;5.30;;;;;;;24.74;40.69;100943.53;6116220;23;20013;-72
2023/07/07 08:50:32;;;;;;;5.45;5.15;;;;;;;24.74;40.96;100954.25;6085917;23;20130;-72
2023/07/07 08:53:11;;;;;;;5.75;5.35;;;;;;;24.14;40.02;100783.66;6114546;23;20093;-72
2023/07/07 08:55:50;;;;;;;5.53;5.22;;;;;;;24.65;40.41;100923.88;6116897;23;20034;-72
2023/07/07 08:58:35;;;;;;;6.93;5.40;;;;;;;24.97;40.03;100951.75;6080590;23;20036;-73
2023/07/07 09:01:28;;;;;;;5.70;5.40;;;;;;;24.99;39.26;100922.03;6111353;23;20148;-71
2023/07/07 09:04:08;;;;;;;5.85;5.45;;;;;;;25.22;39.58;100949.91;6103940;23;20118;-72
2023/07/07 09:06:56;;;;;;;6.10;5.70;;;;;;;25.26;39.00;100888.66;6107562;23;20022;-73
2023/07/07 09:09:43;;;;;;;5.90;5.50;;;;;;;25.57;39.64;100987.31;6110058;23;20045;-71
2023/07/07 09:12:25;;;;;;;5.78;5.38;;;;;;;25.55;38.05;100868.38;6105645;23;20017;-71
2023/07/07 09:14:55;;;;;;;5.82;5.53;;;;;;;25.22;37.45;100799.50;6053314;23;20030;-72
2023/07/07 09:17:46;;;;;;;6.20;5.78;;;;;;;25.74;37.80;100918.19;6111088;23;20085;-72
2023/07/07 09:20:14;;;;;;;5.93;5.53;;;;;;;26.04;37.29;100936.25;6110767;23;20029;-72
2023/07/07 09:22:46;;;;;;;6.05;5.75;;;;;;;26.44;38.15;101000.78;6105377;23;20025;-71
2023/07/07 09:25:26;;;;;;;;;;;;;;;26.35;36.37;100896.91;6110064;23;20029;-71
2023/07/07 09:28:14;;;;;;;5.45;5.10;;;;;;;26.37;35.98;100890.31;6108819;23;19914;-73
2023/07/07 09:30:52;;;;;;;5.80;5.50;;;;;;;26.63;35.90;100906.13;6108456;23;20046;-72
2023/07/07 09:33:21;;;;;;;5.80;5.50;;;;;;;26.32;35.26;100806.63;6112057;23;20092;-73
2023/07/07 09:36:44;;;;;;;5.90;5.60;;;;;;;26.88;35.65;100927.47;6112720;23;20630;-70
2023/07/07 09:39:29;;;;;;;6.20;5.80;;;;;;;26.92;34.73;100898.31;6021851;23;20587;-71
2023/07/07 09:42:37;;;;;;;5.80;5.50;;;;;;;26.94;35.53;100921.38;6080299;23;20535;-71
2023/07/07 09:45:22;;;;;;;6.47;6.00;;;;;;;26.91;34.32;100858.97;6111511;23;20059;-71
2023/07/07 09:48:10;;;;;;;5.70;5.40;;;;;;;27.06;34.10;100879.50;6104815;23;20488;-71
2023/07/07 09:50:51;;;;;;;6.10;5.70;;;;;;;26.70;33.32;100778.88;6111703;23;20522;-70
2023/07/07 09:53:31;;;;;;;5.93;5.57;;;;;;;27.22;32.67;100821.91;6113662;23;20037;-70
2023/07/07 09:56:16;;;;;;;5.60;5.30;;;;;;;27.46;32.21;100857.69;6110216;23;20090;-70
2023/07/07 09:58:51;;;;;;;5.85;5.55;;;;;;;27.39;31.06;100774.06;6085572;23;20033;-70
2023/07/07 10:01:19;;;;;;;5.90;5.60;;;;;;;27.55;31.61;100842.25;6110241;23;20049;-71
2023/07/07 10:03:51;;;;;;;6.18;5.78;;;;;;;27.24;31.84;100809.13;6110862;23;20058;-70
2023/07/07 10:06:33;;;;;;;5.80;5.43;;;;;;;26.93;31.36;100747.31;6115976;23;20113;-70
2023/07/07 10:09:01;;;;;;;5.80;5.50;;;;;;;27.22;30.73;100768.03;6109033;23;20024;-71
2023/07/07 10:11:36;;;;;;;5.82;5.53;;;;;;;27.39;30.40;100767.84;6114731;23;20102;-71
2023/07/07 10:14:10;;;;;;;5.97;5.57;;;;;;;27.58;31.81;100887.69;6115600;23;20021;-70
2023/07/07 10:16:49;;;;;;;5.80;5.50;;;;;;;27.77;30.62;100860.16;6110744;23;20089;-72
2023/07/07 10:19:17;;;;;;;6.10;5.70;;;;;;;27.50;29.99;100769.19;6112540;23;20028;-71
2023/07/07 10:21:43;;;;;;;5.90;5.50;;;;;;;27.95;30.61;100880.53;6108597;23;20104;-71
2023/07/07 10:24:11;;;;;;;6.10;5.70;;;;;;;27.79;30.58;100833.84;6113358;23;20033;-70
2023/07/07 10:26:42;;;;;;;6.00;5.70;;;;;;;27.99;30.17;100833.25;6111635;23;20312;-72
2023/07/07 10:29:13;;;;;;;6.20;5.80;;;;;;;27.85;29.79;100798.00;6111394;23;20088;-71
2023/07/07 10:31:42;;;;;;;6.30;5.85;;;;;;;27.23;29.30;100656.53;6110667;23;20034;-71
2023/07/07 10:34:26;;;;;;;6.65;6.05;;;;;;;28.12;29.53;100833.38;6107639;23;20094;-72
2023/07/07 10:36:55;;;;;;;6.00;5.70;;;;;;;28.10;30.83;100900.19;6111254;23;20044;-72
2023/07/07 10:39:26;;;;;;;6.25;5.85;;;;;;;27.89;30.08;100830.03;6111500;23;20659;-71
2023/07/07 10:41:53;;;;;;;6.22;5.82;;;;;;;28.18;28.89;100765.16;6089544;23;20096;-71
2023/07/07 10:44:24;;;;;;;6.20;5.80;;;;;;;28.14;29.37;100782.75;6103563;23;20018;-71
2023/07/07 10:46:50;;;;;;;5.80;5.50;;;;;;;28.34;28.95;100826.13;6079986;23;21332;-71
2023/07/07 10:49:19;;;;;;;5.60;5.30;;;;;;;28.36;28.98;100802.47;6108996;23;20024;-71
2023/07/07 10:51:52;;;;;;;6.28;5.88;;;;;;;27.93;28.69;100728.81;6109059;23;20104;-71
2023/07/07 10:54:47;;;;;;;6.05;5.50;;;;;;;27.72;27.86;100710.75;6111223;23;20022;-71
2023/07/07 10:57:41;;;;;;;5.97;5.68;;;;;;;28.14;28.50;100806.22;6107539;23;20179;-72
2023/07/07 11:00:41;;;;;;;6.10;5.80;;;;;;;28.39;26.56;100720.28;6112268;23;20025;-70
2023/07/07 11:03:29;;;;;;;6.05;5.75;;;;;;;28.49;27.88;100820.66;6113209;23;20018;-71
2023/07/07 11:06:15;;;;;;;5.78;5.47;;;;;;;28.71;27.63;100839.56;6089337;23;20051;-70
2023/07/07 11:08:55;;;;;;;6.25;5.85;;;;;;;28.82;28.15;100849.81;6109522;23;20038;-71
2023/07/07 11:11:46;;;;;;;6.00;5.65;;;;;;;29.06;27.08;100812.56;6109014;23;20046;-71
2023/07/07 11:14:25;;;;;;;6.13;5.72;;;;;;;28.83;25.76;100681.31;6094105;23;20045;-70
2023/07/07 11:17:24;;;;;;;6.20;5.80;;;;;;;29.02;26.49;100764.31;6107793;23;20020;-71
2023/07/07 11:19:54;;;;;;;6.03;5.68;;;;;;;29.12;27.10;100817.19;6109321;23;20033;-71
2023/07/07 11:22:47;;;;;;;6.53;6.13;;;;;;;29.30;26.25;100803.97;6112250;23;20029;-70
2023/07/07 11:25:16;;;;;;;6.40;6.03;;;;;;;29.08;27.28;100807.78;6107478;23;20069;-71
2023/07/07 11:27:55;;;;;;;6.72;6.03;;;;;;;29.17;27.09;100820.16;6110279;23;20080;-70
2023/07/07 11:30:52;;;;;;;6.18;5.78;;;;;;;29.20;26.67;100758.41;6113948;23;20033;-70
2023/07/07 11:33:37;;;;;;;6.38;5.97;;;;;;;28.66;27.22;100748.31;6110302;23;20021;-70
2023/07/07 11:36:42;;;;;;;6.30;5.90;;;;;;;28.91;27.33;100759.47;6085855;23;20036;-70
2023/07/07 11:39:14;;;;;;;7.78;6.22;;;;;;;28.95;27.79;100795.88;6041865;23;20022;-70
2023/07/07 11:42:05;;;;;;;6.72;6.22;;;;;;;28.92;27.60;100801.66;6103596;23;20482;-70
2023/07/07 11:44:57;;;;;;;6.13;5.70;;;;;;;28.77;26.82;100738.84;6078511;23;20221;-70